sensor_id;sensor_type;location;lat;lon;timestamp;P1;durP1;ratioP1;P2;durP2;ratioP2
28245;SDS011;15510;52.512;13.300;2024-03-23T00:54:54;14.30;;;2.63;;
28245;SDS011;15510;52.512;13.300;2024-03-23T00:57:20;11.97;;;2.73;;
28245;SDS011;15510;52.512;13.300;2024-03-23T00:59:49;11.17;;;2.70;;
28245;SDS011;15510;52.512;13.300;2024-03-23T01:02:14;10.00;;;2.43;;
28245;SDS011;15510;52.512;13.300;2024-03-23T01:04:46;13.10;;;2.57;;
28245;SDS011;15510;52.512;13.300;2024-03-23T01:07:12;12.57;;;2.60;;
28245;SDS011;15510;52.512;13.300;2024-03-23T01:09:41;12.03;;;3.90;;
28245;SDS011;15510;52.512;13.300;2024-03-23T01:12:19;13.33;;;2.17;;
28245;SDS011;15510;52.512;13.300;2024-03-23T01:14:48;9.80;;;2.67;;
28245;SDS011;15510;52.512;13.300;2024-03-23T01:17:18;14.60;;;2.30;;
28245;SDS011;15510;52.512;13.300;2024-03-23T01:19:44;15.47;;;3.30;;
28245;SDS011;15510;52.512;13.300;2024-03-23T01:22:13;12.23;;;3.10;;
28245;SDS011;15510;52.512;13.300;2024-03-23T01:24:41;12.70;;;2.87;;
28245;SDS011;15510;52.512;13.300;2024-03-23T01:27:12;11.50;;;2.17;;
28245;SDS011;15510;52.512;13.300;2024-03-23T01:29:40;13.17;;;2.93;;
28245;SDS011;15510;52.512;13.300;2024-03-23T01:32:14;16.13;;;3.73;;
28245;SDS011;15510;52.512;13.300;2024-03-23T01:34:40;13.07;;;2.83;;
28245;SDS011;15510;52.512;13.300;2024-03-23T01:37:14;20.00;;;3.07;;
28245;SDS011;15510;52.512;13.300;2024-03-23T01:39:49;20.17;;;3.17;;
28245;SDS011;15510;52.512;13.300;2024-03-23T01:42:17;14.10;;;2.70;;
28245;SDS011;15510;52.512;13.300;2024-03-23T01:44:52;15.77;;;2.87;;
28245;SDS011;15510;52.512;13.300;2024-03-23T01:47:21;16.40;;;3.07;;
28245;SDS011;15510;52.512;13.300;2024-03-23T01:49:51;10.40;;;2.60;;
28245;SDS011;15510;52.512;13.300;2024-03-23T01:52:24;14.50;;;3.10;;
28245;SDS011;15510;52.512;13.300;2024-03-23T01:54:52;10.13;;;2.50;;
28245;SDS011;15510;52.512;13.300;2024-03-23T01:57:45;12.40;;;2.63;;
28245;SDS011;15510;52.512;13.300;2024-03-23T02:00:14;15.77;;;2.83;;
28245;SDS011;15510;52.512;13.300;2024-03-23T02:02:43;16.17;;;3.50;;
28245;SDS011;15510;52.512;13.300;2024-03-23T02:05:13;15.70;;;3.13;;
28245;SDS011;15510;52.512;13.300;2024-03-23T02:07:48;12.73;;;3.10;;
28245;SDS011;15510;52.512;13.300;2024-03-23T02:10:16;14.47;;;3.87;;
28245;SDS011;15510;52.512;13.300;2024-03-23T02:12:45;10.80;;;2.57;;
28245;SDS011;15510;52.512;13.300;2024-03-23T02:15:13;12.10;;;3.37;;
28245;SDS011;15510;52.512;13.300;2024-03-23T02:17:39;9.40;;;2.60;;
28245;SDS011;15510;52.512;13.300;2024-03-23T02:20:15;8.80;;;2.33;;
28245;SDS011;15510;52.512;13.300;2024-03-23T02:22:40;9.63;;;2.27;;
28245;SDS011;15510;52.512;13.300;2024-03-23T02:25:08;12.87;;;3.10;;
28245;SDS011;15510;52.512;13.300;2024-03-23T02:27:37;14.33;;;3.27;;
28245;SDS011;15510;52.512;13.300;2024-03-23T02:30:07;16.53;;;2.80;;
28245;SDS011;15510;52.512;13.300;2024-03-23T02:32:34;14.33;;;2.80;;
28245;SDS011;15510;52.512;13.300;2024-03-23T02:35:02;13.13;;;2.53;;
28245;SDS011;15510;52.512;13.300;2024-03-23T02:37:30;12.00;;;2.50;;
28245;SDS011;15510;52.512;13.300;2024-03-23T02:39:56;11.07;;;2.50;;
28245;SDS011;15510;52.512;13.300;2024-03-23T02:42:33;11.03;;;2.27;;
28245;SDS011;15510;52.512;13.300;2024-03-23T02:45:05;8.33;;;2.20;;
28245;SDS011;15510;52.512;13.300;2024-03-23T02:47:46;15.13;;;2.83;;
28245;SDS011;15510;52.512;13.300;2024-03-23T02:50:44;13.03;;;2.07;;
28245;SDS011;15510;52.512;13.300;2024-03-23T02:53:09;13.23;;;2.70;;
28245;SDS011;15510;52.512;13.300;2024-03-23T02:55:46;13.77;;;2.60;;
28245;SDS011;15510;52.512;13.300;2024-03-23T02:58:16;12.17;;;3.83;;
28245;SDS011;15510;52.512;13.300;2024-03-23T03:00:44;16.30;;;3.17;;
28245;SDS011;15510;52.512;13.300;2024-03-23T03:03:16;13.27;;;2.77;;
28245;SDS011;15510;52.512;13.300;2024-03-23T03:05:42;14.20;;;2.60;;
28245;SDS011;15510;52.512;13.300;2024-03-23T03:08:14;9.80;;;2.57;;
28245;SDS011;15510;52.512;13.300;2024-03-23T03:10:40;9.93;;;2.63;;
28245;SDS011;15510;52.512;13.300;2024-03-23T03:13:18;14.20;;;2.90;;
28245;SDS011;15510;52.512;13.300;2024-03-23T03:15:49;11.43;;;2.70;;
28245;SDS011;15510;52.512;13.300;2024-03-23T03:18:21;13.93;;;2.60;;
28245;SDS011;15510;52.512;13.300;2024-03-23T03:20:57;10.63;;;2.50;;
28245;SDS011;15510;52.512;13.300;2024-03-23T03:23:34;13.50;;;2.87;;
28245;SDS011;15510;52.512;13.300;2024-03-23T03:26:02;14.57;;;2.53;;
28245;SDS011;15510;52.512;13.300;2024-03-23T03:28:40;12.20;;;2.87;;
28245;SDS011;15510;52.512;13.300;2024-03-23T03:31:23;8.70;;;2.37;;
28245;SDS011;15510;52.512;13.300;2024-03-23T03:33:57;17.30;;;3.07;;
28245;SDS011;15510;52.512;13.300;2024-03-23T03:36:26;8.10;;;2.50;;
28245;SDS011;15510;52.512;13.300;2024-03-23T03:39:06;18.57;;;2.97;;
28245;SDS011;15510;52.512;13.300;2024-03-23T03:41:40;14.37;;;2.93;;
28245;SDS011;15510;52.512;13.300;2024-03-23T03:44:11;9.93;;;2.40;;
28245;SDS011;15510;52.512;13.300;2024-03-23T03:46:56;13.17;;;3.10;;
28245;SDS011;15510;52.512;13.300;2024-03-23T03:49:25;15.50;;;3.27;;
28245;SDS011;15510;52.512;13.300;2024-03-23T03:52:14;11.03;;;2.77;;
28245;SDS011;15510;52.512;13.300;2024-03-23T03:54:55;12.73;;;3.07;;
28245;SDS011;15510;52.512;13.300;2024-03-23T03:57:30;10.70;;;2.67;;
28245;SDS011;15510;52.512;13.300;2024-03-23T04:00:08;12.17;;;3.30;;
28245;SDS011;15510;52.512;13.300;2024-03-23T04:02:42;13.83;;;2.53;;
28245;SDS011;15510;52.512;13.300;2024-03-23T04:05:27;11.43;;;2.80;;
28245;SDS011;15510;52.512;13.300;2024-03-23T04:07:57;10.17;;;2.53;;
28245;SDS011;15510;52.512;13.300;2024-03-23T04:10:30;8.93;;;2.00;;
28245;SDS011;15510;52.512;13.300;2024-03-23T04:13:03;12.40;;;2.37;;
28245;SDS011;15510;52.512;13.300;2024-03-23T04:15:36;9.27;;;2.50;;
28245;SDS011;15510;52.512;13.300;2024-03-23T04:18:07;9.00;;;2.00;;
28245;SDS011;15510;52.512;13.300;2024-03-23T04:20:39;4.57;;;1.30;;
28245;SDS011;15510;52.512;13.300;2024-03-23T04:23:05;8.73;;;1.77;;
28245;SDS011;15510;52.512;13.300;2024-03-23T04:25:33;5.93;;;1.80;;
28245;SDS011;15510;52.512;13.300;2024-03-23T04:28:01;9.93;;;1.60;;
28245;SDS011;15510;52.512;13.300;2024-03-23T04:30:27;6.20;;;2.10;;
28245;SDS011;15510;52.512;13.300;2024-03-23T04:32:54;10.17;;;1.87;;
28245;SDS011;15510;52.512;13.300;2024-03-23T04:35:26;4.17;;;1.37;;
28245;SDS011;15510;52.512;13.300;2024-03-23T04:38:12;6.97;;;1.60;;
28245;SDS011;15510;52.512;13.300;2024-03-23T04:40:41;10.27;;;1.90;;
28245;SDS011;15510;52.512;13.300;2024-03-23T04:43:08;9.17;;;1.60;;
28245;SDS011;15510;52.512;13.300;2024-03-23T04:45:39;7.97;;;1.23;;
28245;SDS011;15510;52.512;13.300;2024-03-23T04:48:05;8.63;;;1.67;;
28245;SDS011;15510;52.512;13.300;2024-03-23T04:50:42;7.20;;;1.23;;
28245;SDS011;15510;52.512;13.300;2024-03-23T04:53:12;5.17;;;1.63;;
28245;SDS011;15510;52.512;13.300;2024-03-23T04:55:55;4.93;;;1.43;;
28245;SDS011;15510;52.512;13.300;2024-03-23T04:58:24;8.27;;;1.50;;
28245;SDS011;15510;52.512;13.300;2024-03-23T05:00:58;10.27;;;2.10;;
28245;SDS011;15510;52.512;13.300;2024-03-23T05:03:24;13.63;;;2.20;;
28245;SDS011;15510;52.512;13.300;2024-03-23T05:05:50;8.83;;;1.57;;
28245;SDS011;15510;52.512;13.300;2024-03-23T05:08:29;6.70;;;1.33;;
28245;SDS011;15510;52.512;13.300;2024-03-23T05:11:08;11.57;;;2.33;;
28245;SDS011;15510;52.512;13.300;2024-03-23T05:13:40;10.63;;;1.90;;
28245;SDS011;15510;52.512;13.300;2024-03-23T05:16:09;12.60;;;2.40;;
28245;SDS011;15510;52.512;13.300;2024-03-23T05:18:35;8.07;;;2.23;;
28245;SDS011;15510;52.512;13.300;2024-03-23T05:21:01;7.80;;;1.73;;
28245;SDS011;15510;52.512;13.300;2024-03-23T05:23:30;7.57;;;1.80;;
28245;SDS011;15510;52.512;13.300;2024-03-23T05:26:03;11.23;;;1.70;;
28245;SDS011;15510;52.512;13.300;2024-03-23T05:28:42;8.13;;;1.80;;
28245;SDS011;15510;52.512;13.300;2024-03-23T05:31:09;6.83;;;1.60;;
28245;SDS011;15510;52.512;13.300;2024-03-23T05:33:37;4.37;;;1.23;;
28245;SDS011;15510;52.512;13.300;2024-03-23T05:36:06;10.13;;;2.10;;
28245;SDS011;15510;52.512;13.300;2024-03-23T05:38:36;4.03;;;1.50;;
28245;SDS011;15510;52.512;13.300;2024-03-23T05:41:09;8.00;;;2.03;;
28245;SDS011;15510;52.512;13.300;2024-03-23T05:43:38;4.10;;;1.83;;
28245;SDS011;15510;52.512;13.300;2024-03-23T05:46:04;9.73;;;3.33;;
28245;SDS011;15510;52.512;13.300;2024-03-23T05:48:31;6.40;;;1.40;;
28245;SDS011;15510;52.512;13.300;2024-03-23T05:50:57;12.23;;;4.97;;
28245;SDS011;15510;52.512;13.300;2024-03-23T05:53:23;11.20;;;2.13;;
28245;SDS011;15510;52.512;13.300;2024-03-23T05:55:49;6.67;;;1.70;;
28245;SDS011;15510;52.512;13.300;2024-03-23T05:58:18;6.50;;;2.10;;
28245;SDS011;15510;52.512;13.300;2024-03-23T06:00:45;9.47;;;1.70;;
28245;SDS011;15510;52.512;13.300;2024-03-23T06:03:11;6.37;;;1.73;;
28245;SDS011;15510;52.512;13.300;2024-03-23T06:05:37;9.47;;;1.70;;
28245;SDS011;15510;52.512;13.300;2024-03-23T06:08:06;10.87;;;1.57;;
28245;SDS011;15510;52.512;13.300;2024-03-23T06:10:34;6.93;;;1.50;;
28245;SDS011;15510;52.512;13.300;2024-03-23T06:13:00;4.33;;;1.60;;
28245;SDS011;15510;52.512;13.300;2024-03-23T06:15:27;8.40;;;1.50;;
28245;SDS011;15510;52.512;13.300;2024-03-23T06:17:53;5.43;;;1.67;;
28245;SDS011;15510;52.512;13.300;2024-03-23T06:20:19;7.00;;;1.77;;
28245;SDS011;15510;52.512;13.300;2024-03-23T06:22:46;7.70;;;1.40;;
28245;SDS011;15510;52.512;13.300;2024-03-23T06:25:18;9.40;;;2.03;;
28245;SDS011;15510;52.512;13.300;2024-03-23T06:27:49;6.63;;;2.27;;
28245;SDS011;15510;52.512;13.300;2024-03-23T06:30:17;9.37;;;2.23;;
28245;SDS011;15510;52.512;13.300;2024-03-23T06:32:45;7.07;;;2.83;;
28245;SDS011;15510;52.512;13.300;2024-03-23T06:35:12;7.37;;;2.27;;
28245;SDS011;15510;52.512;13.300;2024-03-23T06:37:40;5.80;;;2.03;;
28245;SDS011;15510;52.512;13.300;2024-03-23T06:40:06;12.93;;;3.00;;
28245;SDS011;15510;52.512;13.300;2024-03-23T06:42:38;10.13;;;1.93;;
28245;SDS011;15510;52.512;13.300;2024-03-23T06:45:11;4.63;;;1.80;;
28245;SDS011;15510;52.512;13.300;2024-03-23T06:47:40;6.67;;;2.40;;
28245;SDS011;15510;52.512;13.300;2024-03-23T06:50:12;8.13;;;2.47;;
28245;SDS011;15510;52.512;13.300;2024-03-23T06:52:47;13.60;;;2.00;;
28245;SDS011;15510;52.512;13.300;2024-03-23T06:55:12;6.90;;;2.00;;
28245;SDS011;15510;52.512;13.300;2024-03-23T06:57:38;6.43;;;1.73;;
28245;SDS011;15510;52.512;13.300;2024-03-23T07:00:07;7.73;;;1.73;;
28245;SDS011;15510;52.512;13.300;2024-03-23T07:02:35;4.63;;;1.40;;
28245;SDS011;15510;52.512;13.300;2024-03-23T07:05:01;5.67;;;1.50;;
28245;SDS011;15510;52.512;13.300;2024-03-23T07:07:28;6.53;;;1.90;;
28245;SDS011;15510;52.512;13.300;2024-03-23T07:09:55;4.53;;;1.40;;
28245;SDS011;15510;52.512;13.300;2024-03-23T07:12:21;8.37;;;1.27;;
28245;SDS011;15510;52.512;13.300;2024-03-23T07:14:46;5.07;;;1.30;;
28245;SDS011;15510;52.512;13.300;2024-03-23T07:17:12;5.77;;;1.30;;
28245;SDS011;15510;52.512;13.300;2024-03-23T07:19:38;6.60;;;1.87;;
28245;SDS011;15510;52.512;13.300;2024-03-23T07:22:04;8.20;;;2.03;;
28245;SDS011;15510;52.512;13.300;2024-03-23T07:24:30;4.07;;;1.30;;
28245;SDS011;15510;52.512;13.300;2024-03-23T07:26:56;5.23;;;1.67;;
28245;SDS011;15510;52.512;13.300;2024-03-23T07:29:23;7.60;;;1.80;;
28245;SDS011;15510;52.512;13.300;2024-03-23T07:31:49;5.73;;;2.20;;
28245;SDS011;15510;52.512;13.300;2024-03-23T07:34:14;7.00;;;1.63;;
28245;SDS011;15510;52.512;13.300;2024-03-23T07:36:40;4.43;;;1.57;;
28245;SDS011;15510;52.512;13.300;2024-03-23T07:39:06;10.07;;;1.90;;
28245;SDS011;15510;52.512;13.300;2024-03-23T07:41:33;3.47;;;1.20;;
28245;SDS011;15510;52.512;13.300;2024-03-23T07:44:03;6.10;;;1.33;;
28245;SDS011;15510;52.512;13.300;2024-03-23T07:46:29;7.13;;;1.50;;
28245;SDS011;15510;52.512;13.300;2024-03-23T07:48:54;4.80;;;1.83;;
28245;SDS011;15510;52.512;13.300;2024-03-23T07:51:21;6.23;;;1.60;;
28245;SDS011;15510;52.512;13.300;2024-03-23T07:53:48;6.00;;;1.67;;
28245;SDS011;15510;52.512;13.300;2024-03-23T07:56:14;3.17;;;1.40;;
28245;SDS011;15510;52.512;13.300;2024-03-23T07:58:41;10.47;;;2.00;;
28245;SDS011;15510;52.512;13.300;2024-03-23T08:01:07;6.40;;;1.40;;
28245;SDS011;15510;52.512;13.300;2024-03-23T08:03:38;7.07;;;1.80;;
28245;SDS011;15510;52.512;13.300;2024-03-23T08:06:09;4.60;;;1.53;;
28245;SDS011;15510;52.512;13.300;2024-03-23T08:08:42;8.63;;;2.30;;
28245;SDS011;15510;52.512;13.300;2024-03-23T08:11:12;6.20;;;2.20;;
28245;SDS011;15510;52.512;13.300;2024-03-23T08:13:41;7.40;;;2.40;;
28245;SDS011;15510;52.512;13.300;2024-03-23T08:16:10;9.33;;;2.73;;
28245;SDS011;15510;52.512;13.300;2024-03-23T08:18:39;7.90;;;3.00;;
28245;SDS011;15510;52.512;13.300;2024-03-23T08:21:05;7.47;;;2.37;;
28245;SDS011;15510;52.512;13.300;2024-03-23T08:23:34;6.83;;;1.70;;
28245;SDS011;15510;52.512;13.300;2024-03-23T08:26:08;6.10;;;1.47;;
28245;SDS011;15510;52.512;13.300;2024-03-23T08:28:38;6.10;;;1.83;;
28245;SDS011;15510;52.512;13.300;2024-03-23T08:31:07;7.23;;;1.67;;
28245;SDS011;15510;52.512;13.300;2024-03-23T08:33:34;4.80;;;1.50;;
28245;SDS011;15510;52.512;13.300;2024-03-23T08:36:01;5.43;;;1.50;;
28245;SDS011;15510;52.512;13.300;2024-03-23T08:38:28;4.70;;;1.40;;
28245;SDS011;15510;52.512;13.300;2024-03-23T08:43:35;3.80;;;1.70;;
28245;SDS011;15510;52.512;13.300;2024-03-23T08:46:09;7.97;;;1.93;;
28245;SDS011;15510;52.512;13.300;2024-03-23T08:48:39;6.60;;;1.90;;
28245;SDS011;15510;52.512;13.300;2024-03-23T08:51:13;7.83;;;2.67;;
28245;SDS011;15510;52.512;13.300;2024-03-23T08:53:45;7.27;;;2.10;;
28245;SDS011;15510;52.512;13.300;2024-03-23T08:56:11;6.67;;;1.40;;
28245;SDS011;15510;52.512;13.300;2024-03-23T08:58:37;5.33;;;1.57;;
28245;SDS011;15510;52.512;13.300;2024-03-23T09:01:10;5.40;;;1.83;;
28245;SDS011;15510;52.512;13.300;2024-03-23T09:03:40;5.53;;;1.47;;
28245;SDS011;15510;52.512;13.300;2024-03-23T09:06:07;6.83;;;1.63;;
28245;SDS011;15510;52.512;13.300;2024-03-23T09:08:34;4.30;;;1.20;;
28245;SDS011;15510;52.512;13.300;2024-03-23T09:11:08;2.70;;;1.17;;
28245;SDS011;15510;52.512;13.300;2024-03-23T09:13:41;3.47;;;1.47;;
28245;SDS011;15510;52.512;13.300;2024-03-23T09:16:07;6.13;;;1.00;;
28245;SDS011;15510;52.512;13.300;2024-03-23T09:18:35;6.30;;;1.47;;
28245;SDS011;15510;52.512;13.300;2024-03-23T09:21:04;1.97;;;0.80;;
28245;SDS011;15510;52.512;13.300;2024-03-23T09:23:37;3.80;;;1.30;;
28245;SDS011;15510;52.512;13.300;2024-03-23T09:26:05;5.20;;;1.20;;
28245;SDS011;15510;52.512;13.300;2024-03-23T09:28:37;6.20;;;1.20;;
28245;SDS011;15510;52.512;13.300;2024-03-23T09:31:06;3.30;;;1.33;;
28245;SDS011;15510;52.512;13.300;2024-03-23T09:33:34;4.43;;;1.50;;
28245;SDS011;15510;52.512;13.300;2024-03-23T09:36:03;3.00;;;1.10;;
28245;SDS011;15510;52.512;13.300;2024-03-23T09:38:30;4.13;;;1.20;;
28245;SDS011;15510;52.512;13.300;2024-03-23T09:40:56;5.97;;;1.63;;
28245;SDS011;15510;52.512;13.300;2024-03-23T09:43:22;3.03;;;1.23;;
28245;SDS011;15510;52.512;13.300;2024-03-23T09:45:51;2.17;;;1.10;;
28245;SDS011;15510;52.512;13.300;2024-03-23T09:48:18;5.20;;;1.40;;
28245;SDS011;15510;52.512;13.300;2024-03-23T09:50:44;6.67;;;1.13;;
28245;SDS011;15510;52.512;13.300;2024-03-23T09:53:14;6.93;;;2.30;;
28245;SDS011;15510;52.512;13.300;2024-03-23T09:55:44;3.90;;;1.37;;
28245;SDS011;15510;52.512;13.300;2024-03-23T09:58:14;4.50;;;1.50;;
28245;SDS011;15510;52.512;13.300;2024-03-23T10:00:45;4.73;;;1.50;;
28245;SDS011;15510;52.512;13.300;2024-03-23T10:03:13;3.97;;;1.33;;
28245;SDS011;15510;52.512;13.300;2024-03-23T10:05:39;2.10;;;1.30;;
28245;SDS011;15510;52.512;13.300;2024-03-23T10:10:43;4.10;;;1.73;;
28245;SDS011;15510;52.512;13.300;2024-03-23T10:13:10;7.73;;;1.70;;
28245;SDS011;15510;52.512;13.300;2024-03-23T10:15:39;5.87;;;1.90;;
28245;SDS011;15510;52.512;13.300;2024-03-23T10:18:18;9.47;;;1.93;;
28245;SDS011;15510;52.512;13.300;2024-03-23T10:20:50;11.10;;;2.23;;
28245;SDS011;15510;52.512;13.300;2024-03-23T10:23:33;7.80;;;1.47;;
28245;SDS011;15510;52.512;13.300;2024-03-23T10:28:52;6.60;;;2.07;;
28245;SDS011;15510;52.512;13.300;2024-03-23T10:31:27;6.47;;;1.60;;
28245;SDS011;15510;52.512;13.300;2024-03-23T10:33:54;6.47;;;1.67;;
28245;SDS011;15510;52.512;13.300;2024-03-23T10:36:23;7.63;;;2.10;;
28245;SDS011;15510;52.512;13.300;2024-03-23T10:38:53;12.77;;;2.20;;
28245;SDS011;15510;52.512;13.300;2024-03-23T10:41:19;5.53;;;1.93;;
28245;SDS011;15510;52.512;13.300;2024-03-23T10:43:51;6.17;;;1.70;;
28245;SDS011;15510;52.512;13.300;2024-03-23T10:46:17;7.97;;;1.90;;
28245;SDS011;15510;52.512;13.300;2024-03-23T10:48:43;5.03;;;1.63;;
28245;SDS011;15510;52.512;13.300;2024-03-23T10:51:09;8.40;;;1.70;;
28245;SDS011;15510;52.512;13.300;2024-03-23T10:53:36;6.97;;;1.67;;
28245;SDS011;15510;52.512;13.300;2024-03-23T10:58:49;5.40;;;1.73;;
28245;SDS011;15510;52.512;13.300;2024-03-23T11:01:16;7.60;;;1.90;;
28245;SDS011;15510;52.512;13.300;2024-03-23T11:03:46;7.00;;;1.40;;
28245;SDS011;15510;52.512;13.300;2024-03-23T11:06:34;2.13;;;1.43;;
28245;SDS011;15510;52.512;13.300;2024-03-23T11:09:06;8.70;;;1.80;;
28245;SDS011;15510;52.512;13.300;2024-03-23T11:14:54;4.10;;;1.37;;
28245;SDS011;15510;52.512;13.300;2024-03-23T11:17:28;6.47;;;1.63;;
28245;SDS011;15510;52.512;13.300;2024-03-23T11:19:58;4.30;;;1.50;;
28245;SDS011;15510;52.512;13.300;2024-03-23T11:22:49;4.83;;;1.50;;
28245;SDS011;15510;52.512;13.300;2024-03-23T11:25:22;8.67;;;2.07;;
28245;SDS011;15510;52.512;13.300;2024-03-23T11:27:56;3.73;;;1.47;;
28245;SDS011;15510;52.512;13.300;2024-03-23T11:30:26;10.97;;;1.77;;
28245;SDS011;15510;52.512;13.300;2024-03-23T11:32:57;3.37;;;1.23;;
28245;SDS011;15510;52.512;13.300;2024-03-23T11:38:11;7.77;;;1.37;;
28245;SDS011;15510;52.512;13.300;2024-03-23T11:40:45;9.20;;;2.27;;
28245;SDS011;15510;52.512;13.300;2024-03-23T11:43:21;7.50;;;2.03;;
28245;SDS011;15510;52.512;13.300;2024-03-23T11:46:08;4.63;;;1.60;;
28245;SDS011;15510;52.512;13.300;2024-03-23T11:48:54;9.77;;;4.00;;
28245;SDS011;15510;52.512;13.300;2024-03-23T11:51:30;3.63;;;1.30;;
28245;SDS011;15510;52.512;13.300;2024-03-23T11:54:10;1.97;;;1.33;;
28245;SDS011;15510;52.512;13.300;2024-03-23T11:56:56;4.17;;;1.43;;
28245;SDS011;15510;52.512;13.300;2024-03-23T11:59:32;5.80;;;1.47;;
28245;SDS011;15510;52.512;13.300;2024-03-23T12:02:12;4.73;;;1.70;;
28245;SDS011;15510;52.512;13.300;2024-03-23T12:04:44;2.67;;;1.33;;
28245;SDS011;15510;52.512;13.300;2024-03-23T12:10:07;5.97;;;2.03;;
28245;SDS011;15510;52.512;13.300;2024-03-23T12:12:33;7.67;;;1.73;;
28245;SDS011;15510;52.512;13.300;2024-03-23T12:17:30;2.27;;;1.30;;
28245;SDS011;15510;52.512;13.300;2024-03-23T12:19:56;6.10;;;1.90;;
28245;SDS011;15510;52.512;13.300;2024-03-23T12:22:22;10.47;;;2.10;;
28245;SDS011;15510;52.512;13.300;2024-03-23T12:24:50;4.23;;;1.40;;
28245;SDS011;15510;52.512;13.300;2024-03-23T12:27:17;10.00;;;2.50;;
28245;SDS011;15510;52.512;13.300;2024-03-23T12:29:42;8.47;;;3.33;;
28245;SDS011;15510;52.512;13.300;2024-03-23T12:32:11;6.73;;;1.63;;
28245;SDS011;15510;52.512;13.300;2024-03-23T12:34:37;9.47;;;1.57;;
28245;SDS011;15510;52.512;13.300;2024-03-23T12:37:09;3.90;;;1.50;;
28245;SDS011;15510;52.512;13.300;2024-03-23T12:39:40;3.33;;;1.37;;
28245;SDS011;15510;52.512;13.300;2024-03-23T12:42:09;4.57;;;1.63;;
28245;SDS011;15510;52.512;13.300;2024-03-23T12:44:59;5.30;;;1.40;;
28245;SDS011;15510;52.512;13.300;2024-03-23T12:47:27;2.23;;;1.13;;
28245;SDS011;15510;52.512;13.300;2024-03-23T12:50:00;5.27;;;1.77;;
28245;SDS011;15510;52.512;13.300;2024-03-23T12:52:49;4.20;;;1.77;;
28245;SDS011;15510;52.512;13.300;2024-03-23T12:55:16;3.20;;;1.07;;
28245;SDS011;15510;52.512;13.300;2024-03-23T12:57:42;5.13;;;1.27;;
28245;SDS011;15510;52.512;13.300;2024-03-23T13:00:11;7.53;;;1.60;;
28245;SDS011;15510;52.512;13.300;2024-03-23T13:02:38;2.77;;;1.30;;
28245;SDS011;15510;52.512;13.300;2024-03-23T13:05:04;6.27;;;1.53;;
28245;SDS011;15510;52.512;13.300;2024-03-23T13:07:36;4.63;;;1.80;;
28245;SDS011;15510;52.512;13.300;2024-03-23T13:10:04;4.70;;;1.70;;
28245;SDS011;15510;52.512;13.300;2024-03-23T13:12:33;7.70;;;1.80;;
28245;SDS011;15510;52.512;13.300;2024-03-23T13:15:02;7.23;;;1.50;;
28245;SDS011;15510;52.512;13.300;2024-03-23T13:17:44;6.37;;;1.50;;
28245;SDS011;15510;52.512;13.300;2024-03-23T13:20:12;4.83;;;3.10;;
28245;SDS011;15510;52.512;13.300;2024-03-23T13:22:41;2.10;;;1.23;;
28245;SDS011;15510;52.512;13.300;2024-03-23T13:25:15;3.70;;;1.52;;
28245;SDS011;15510;52.512;13.300;2024-03-23T13:27:43;5.18;;;1.05;;
28245;SDS011;15510;52.512;13.300;2024-03-23T13:30:09;5.72;;;1.10;;
28245;SDS011;15510;52.512;13.300;2024-03-23T13:32:36;9.65;;;3.72;;
28245;SDS011;15510;52.512;13.300;2024-03-23T13:35:03;4.97;;;1.90;;
28245;SDS011;15510;52.512;13.300;2024-03-23T13:37:31;6.07;;;1.85;;
28245;SDS011;15510;52.512;13.300;2024-03-23T13:39:57;5.75;;;1.63;;
28245;SDS011;15510;52.512;13.300;2024-03-23T13:42:23;6.50;;;1.92;;
28245;SDS011;15510;52.512;13.300;2024-03-23T13:44:54;5.57;;;1.92;;
28245;SDS011;15510;52.512;13.300;2024-03-23T13:47:19;4.40;;;1.20;;
28245;SDS011;15510;52.512;13.300;2024-03-23T13:49:45;10.20;;;2.45;;
28245;SDS011;15510;52.512;13.300;2024-03-23T13:52:11;8.50;;;2.08;;
28245;SDS011;15510;52.512;13.300;2024-03-23T13:54:43;3.28;;;1.52;;
28245;SDS011;15510;52.512;13.300;2024-03-23T13:57:11;7.32;;;1.95;;
28245;SDS011;15510;52.512;13.300;2024-03-23T13:59:37;5.45;;;2.35;;
28245;SDS011;15510;52.512;13.300;2024-03-23T14:02:03;7.50;;;2.47;;
28245;SDS011;15510;52.512;13.300;2024-03-23T14:04:29;10.53;;;2.30;;
28245;SDS011;15510;52.512;13.300;2024-03-23T14:06:55;16.97;;;2.93;;
28245;SDS011;15510;52.512;13.300;2024-03-23T14:09:20;9.57;;;2.50;;
28245;SDS011;15510;52.512;13.300;2024-03-23T14:11:48;6.80;;;2.20;;
28245;SDS011;15510;52.512;13.300;2024-03-23T14:14:14;8.40;;;2.30;;
28245;SDS011;15510;52.512;13.300;2024-03-23T14:16:42;9.10;;;2.20;;
28245;SDS011;15510;52.512;13.300;2024-03-23T14:19:11;7.70;;;2.23;;
28245;SDS011;15510;52.512;13.300;2024-03-23T14:21:37;14.50;;;3.13;;
28245;SDS011;15510;52.512;13.300;2024-03-23T14:24:03;10.07;;;2.50;;
28245;SDS011;15510;52.512;13.300;2024-03-23T14:26:34;10.77;;;2.20;;
28245;SDS011;15510;52.512;13.300;2024-03-23T14:29:00;11.43;;;2.10;;
28245;SDS011;15510;52.512;13.300;2024-03-23T14:31:28;10.37;;;1.97;;
28245;SDS011;15510;52.512;13.300;2024-03-23T14:33:57;7.20;;;2.40;;
28245;SDS011;15510;52.512;13.300;2024-03-23T14:36:23;4.97;;;1.40;;
28245;SDS011;15510;52.512;13.300;2024-03-23T14:38:50;8.53;;;1.83;;
28245;SDS011;15510;52.512;13.300;2024-03-23T14:41:16;2.63;;;1.17;;
28245;SDS011;15510;52.512;13.300;2024-03-23T14:43:42;5.30;;;1.73;;
28245;SDS011;15510;52.512;13.300;2024-03-23T14:46:14;8.70;;;1.90;;
28245;SDS011;15510;52.512;13.300;2024-03-23T14:48:41;9.23;;;3.00;;
28245;SDS011;15510;52.512;13.300;2024-03-23T14:51:11;8.13;;;2.90;;
28245;SDS011;15510;52.512;13.300;2024-03-23T14:53:40;7.27;;;2.43;;
28245;SDS011;15510;52.512;13.300;2024-03-23T14:56:19;5.00;;;1.90;;
28245;SDS011;15510;52.512;13.300;2024-03-23T14:58:45;8.17;;;3.10;;
28245;SDS011;15510;52.512;13.300;2024-03-23T15:01:15;6.43;;;2.40;;
28245;SDS011;15510;52.512;13.300;2024-03-23T15:03:44;4.60;;;2.20;;
28245;SDS011;15510;52.512;13.300;2024-03-23T15:06:13;2.60;;;1.83;;
28245;SDS011;15510;52.512;13.300;2024-03-23T15:08:52;3.63;;;1.87;;
28245;SDS011;15510;52.512;13.300;2024-03-23T15:11:19;4.33;;;1.97;;
28245;SDS011;15510;52.512;13.300;2024-03-23T15:13:45;3.37;;;1.90;;
28245;SDS011;15510;52.512;13.300;2024-03-23T15:16:19;4.40;;;1.50;;
28245;SDS011;15510;52.512;13.300;2024-03-23T15:18:49;4.13;;;1.40;;
28245;SDS011;15510;52.512;13.300;2024-03-23T15:24:20;3.43;;;2.17;;
28245;SDS011;15510;52.512;13.300;2024-03-23T15:26:46;5.83;;;2.53;;
28245;SDS011;15510;52.512;13.300;2024-03-23T15:29:15;8.67;;;1.97;;
28245;SDS011;15510;52.512;13.300;2024-03-23T15:31:48;4.27;;;2.00;;
28245;SDS011;15510;52.512;13.300;2024-03-23T15:37:21;10.13;;;2.97;;
28245;SDS011;15510;52.512;13.300;2024-03-23T15:39:50;7.10;;;2.77;;
28245;SDS011;15510;52.512;13.300;2024-03-23T15:42:19;6.27;;;1.93;;
28245;SDS011;15510;52.512;13.300;2024-03-23T15:44:48;4.67;;;1.73;;
28245;SDS011;15510;52.512;13.300;2024-03-23T15:47:14;4.17;;;1.93;;
28245;SDS011;15510;52.512;13.300;2024-03-23T15:49:40;5.80;;;3.10;;
28245;SDS011;15510;52.512;13.300;2024-03-23T15:52:10;6.70;;;3.90;;
28245;SDS011;15510;52.512;13.300;2024-03-23T15:54:40;7.67;;;4.13;;
28245;SDS011;15510;52.512;13.300;2024-03-23T15:57:08;6.17;;;3.20;;
28245;SDS011;15510;52.512;13.300;2024-03-23T15:59:34;12.20;;;4.83;;
28245;SDS011;15510;52.512;13.300;2024-03-23T16:02:01;10.93;;;5.83;;
28245;SDS011;15510;52.512;13.300;2024-03-23T16:04:27;7.27;;;3.60;;
28245;SDS011;15510;52.512;13.300;2024-03-23T16:06:53;8.10;;;4.07;;
28245;SDS011;15510;52.512;13.300;2024-03-23T16:09:19;5.07;;;2.13;;